createdAt,value
2022-11-22T00:00:17.289Z,3.27
2022-11-22T00:02:44.638Z,2.23
2022-11-22T00:05:11.740Z,2.53
2022-11-22T00:07:39.351Z,2.43
2022-11-22T00:10:11.859Z,2.63
2022-11-22T00:12:39.580Z,2.10
2022-11-22T00:15:07.700Z,3.70
2022-11-22T00:17:34.768Z,2.90
2022-11-22T00:20:01.919Z,4.27
2022-11-22T00:22:31.391Z,1.83
2022-11-22T00:24:58.044Z,2.13
2022-11-22T00:27:25.202Z,1.87
2022-11-22T00:29:52.467Z,2.13
2022-11-22T00:32:19.100Z,1.57
2022-11-22T00:34:45.707Z,1.90
2022-11-22T00:37:12.356Z,2.60
2022-11-22T00:39:38.966Z,2.53
2022-11-22T00:42:05.622Z,2.80
2022-11-22T00:44:32.234Z,2.93
2022-11-22T00:46:58.820Z,5.97
2022-11-22T00:49:25.490Z,9.50
2022-11-22T00:51:52.107Z,6.73
2022-11-22T00:54:18.734Z,4.10
2022-11-22T00:56:45.310Z,2.90
2022-11-22T00:59:11.889Z,2.00
2022-11-22T01:01:38.563Z,2.73
2022-11-22T01:04:05.216Z,1.80
2022-11-22T01:06:32.154Z,2.03
2022-11-22T01:08:58.835Z,1.73
2022-11-22T01:11:25.439Z,1.50
2022-11-22T01:13:52.024Z,1.77
2022-11-22T01:16:19.433Z,2.30
2022-11-22T01:18:46.156Z,1.77
2022-11-22T01:21:13.157Z,3.83
2022-11-22T01:23:39.822Z,2.23
2022-11-22T01:26:08.977Z,1.73
2022-11-22T01:28:36.723Z,3.53
2022-11-22T01:31:04.942Z,2.60
2022-11-22T01:33:31.542Z,2.40
2022-11-22T01:35:58.628Z,3.33
2022-11-22T01:38:25.546Z,2.43
2022-11-22T01:40:53.228Z,1.90
2022-11-22T01:43:23.780Z,2.20
2022-11-22T01:45:52.820Z,3.07
2022-11-22T01:48:29.973Z,4.07
2022-11-22T01:51:02.646Z,4.27
2022-11-22T01:53:34.622Z,2.73
2022-11-22T01:56:04.646Z,4.87
2022-11-22T01:58:33.985Z,3.60
2022-11-22T02:01:00.772Z,3.13
2022-11-22T02:03:29.540Z,3.77
2022-11-22T02:05:56.519Z,5.23
2022-11-22T02:08:32.494Z,2.37
2022-11-22T02:11:01.754Z,3.13
2022-11-22T02:13:30.602Z,3.57
2022-11-22T02:15:58.428Z,5.10
2022-11-22T02:18:25.003Z,3.93
2022-11-22T02:20:53.007Z,4.97
2022-11-22T02:23:34.688Z,4.27
2022-11-22T02:26:02.552Z,5.73
2022-11-22T02:28:31.516Z,5.20
2022-11-22T02:30:58.437Z,5.63
2022-11-22T02:33:25.006Z,5.60
2022-11-22T02:35:51.855Z,3.83
2022-11-22T02:38:22.559Z,5.87
2022-11-22T02:40:54.636Z,3.10
2022-11-22T02:43:26.769Z,3.70
2022-11-22T02:45:53.402Z,3.90
2022-11-22T02:48:20.040Z,3.73
2022-11-22T02:50:47.198Z,4.60
2022-11-22T02:53:14.252Z,7.17
2022-11-22T02:55:41.093Z,5.23
2022-11-22T02:58:08.104Z,3.70
2022-11-22T03:00:37.015Z,9.37
2022-11-22T03:03:03.778Z,4.43
2022-11-22T03:05:30.411Z,7.10
2022-11-22T03:07:57.004Z,7.33
2022-11-22T03:10:23.662Z,7.30
2022-11-22T03:12:50.256Z,6.27
2022-11-22T03:15:16.920Z,6.53
2022-11-22T03:17:43.539Z,10.43
2022-11-22T03:20:10.280Z,8.23
2022-11-22T03:22:36.868Z,6.40
2022-11-22T03:25:03.764Z,6.70
2022-11-22T03:27:30.371Z,12.23
2022-11-22T03:29:56.992Z,8.60
2022-11-22T03:32:23.663Z,10.40
2022-11-22T03:34:50.238Z,13.53
2022-11-22T03:37:16.870Z,9.83
2022-11-22T03:39:43.423Z,9.37
2022-11-22T03:42:10.041Z,8.40
2022-11-22T03:44:36.706Z,8.63
2022-11-22T03:47:03.465Z,12.03
2022-11-22T03:49:30.376Z,8.77
2022-11-22T03:51:57.084Z,8.03
2022-11-22T03:54:23.662Z,5.60
2022-11-22T03:56:50.322Z,7.10
2022-11-22T03:59:16.903Z,7.67
2022-11-22T04:01:43.564Z,11.43
2022-11-22T04:04:11.053Z,14.63
2022-11-22T04:06:38.527Z,11.60
2022-11-22T04:09:05.170Z,14.03
2022-11-22T04:11:31.891Z,10.23
2022-11-22T04:14:16.803Z,9.47
2022-11-22T04:16:43.467Z,11.53
2022-11-22T04:19:10.340Z,7.30
2022-11-22T04:21:37.005Z,11.63
2022-11-22T04:24:25.271Z,12.53
2022-11-22T04:26:52.511Z,13.20
2022-11-22T04:29:20.159Z,12.97
2022-11-22T04:32:06.728Z,9.30
2022-11-22T04:34:33.897Z,10.43
2022-11-22T04:37:01.392Z,15.70
2022-11-22T04:39:28.703Z,12.27
2022-11-22T04:42:15.492Z,12.00
2022-11-22T04:44:42.888Z,11.80
2022-11-22T04:47:10.820Z,8.97
2022-11-22T04:49:37.447Z,13.10
2022-11-22T04:52:23.672Z,14.43
2022-11-22T04:54:50.316Z,11.43
2022-11-22T04:57:16.944Z,12.33
2022-11-22T04:59:43.555Z,8.77
2022-11-22T05:02:10.169Z,5.97
2022-11-22T05:04:36.780Z,12.10
2022-11-22T05:07:03.468Z,9.90
2022-11-22T05:09:30.418Z,9.20
2022-11-22T05:11:57.238Z,8.67
2022-11-22T05:14:23.834Z,7.30
2022-11-22T05:16:50.407Z,11.90
2022-11-22T05:19:17.004Z,12.50
2022-11-22T05:21:43.591Z,14.37
2022-11-22T05:24:10.183Z,12.50
2022-11-22T05:26:37.678Z,15.10
2022-11-22T05:29:07.168Z,14.70
2022-11-22T05:31:36.462Z,14.90
2022-11-22T05:34:05.125Z,10.33
2022-11-22T05:36:33.616Z,6.27
2022-11-22T05:39:00.401Z,8.57
2022-11-22T05:41:27.100Z,10.17
2022-11-22T05:43:57.623Z,9.53
2022-11-22T05:46:29.306Z,8.87
2022-11-22T05:48:57.594Z,9.30
2022-11-22T05:51:32.161Z,6.67
2022-11-22T05:54:00.972Z,11.40
2022-11-22T05:56:27.554Z,9.50
2022-11-22T05:58:54.253Z,8.90
2022-11-22T06:01:25.144Z,10.30
2022-11-22T06:03:52.638Z,8.53
2022-11-22T06:06:19.281Z,8.73
2022-11-22T06:08:48.111Z,11.03
2022-11-22T06:11:17.357Z,12.50
2022-11-22T06:13:45.579Z,9.87
2022-11-22T06:16:12.507Z,10.47
2022-11-22T06:18:39.442Z,7.90
2022-11-22T06:21:10.291Z,10.20
2022-11-22T06:23:36.868Z,9.43
2022-11-22T06:26:09.295Z,9.70
2022-11-22T06:28:37.130Z,12.63
2022-11-22T06:31:05.365Z,12.27
2022-11-22T06:33:32.268Z,9.20
2022-11-22T06:36:10.253Z,10.23
2022-11-22T06:38:38.313Z,8.67
2022-11-22T06:41:07.730Z,6.00
2022-11-22T06:43:37.356Z,7.50
2022-11-22T06:46:05.696Z,7.37
2022-11-22T06:48:34.318Z,7.00
2022-11-22T06:51:06.444Z,7.73
2022-11-22T06:53:50.078Z,8.57
2022-11-22T06:56:18.140Z,4.90
2022-11-22T06:58:46.394Z,7.90
2022-11-22T07:01:27.341Z,6.80
2022-11-22T07:03:58.338Z,5.33
2022-11-22T07:06:27.783Z,8.43
2022-11-22T07:08:54.810Z,4.47
2022-11-22T07:11:24.294Z,6.30
2022-11-22T07:13:51.645Z,8.67
2022-11-22T07:16:20.859Z,7.17
2022-11-22T07:18:48.714Z,9.10
2022-11-22T07:21:18.832Z,5.60
2022-11-22T07:23:47.729Z,6.07
2022-11-22T07:26:15.868Z,5.70
2022-11-22T07:28:42.740Z,6.27
2022-11-22T07:31:10.943Z,9.87
2022-11-22T07:33:37.830Z,5.77
2022-11-22T07:36:10.053Z,5.80
2022-11-22T07:38:37.247Z,8.07
2022-11-22T07:41:04.851Z,8.47
2022-11-22T07:43:32.969Z,9.47
2022-11-22T07:46:00.570Z,10.77
2022-11-22T07:48:27.142Z,7.70
2022-11-22T07:50:53.768Z,5.73
2022-11-22T07:53:20.466Z,8.20
2022-11-22T07:55:47.117Z,7.07
2022-11-22T07:58:13.812Z,8.27
2022-11-22T08:00:40.487Z,11.53
2022-11-22T08:03:08.280Z,6.87
2022-11-22T08:05:35.052Z,9.60
2022-11-22T08:08:01.640Z,7.90
2022-11-22T08:10:28.265Z,7.00
2022-11-22T08:12:59.166Z,6.57
2022-11-22T08:15:25.782Z,6.00
2022-11-22T08:17:52.556Z,7.97
2022-11-22T08:20:19.154Z,8.53
2022-11-22T08:22:45.715Z,7.33
2022-11-22T08:25:15.196Z,6.23
2022-11-22T08:27:43.362Z,6.20
2022-11-22T08:30:11.306Z,9.13
2022-11-22T08:32:38.462Z,6.17
2022-11-22T08:35:05.703Z,5.97
2022-11-22T08:37:32.336Z,6.50
2022-11-22T08:39:59.039Z,6.40
2022-11-22T08:42:25.639Z,7.40
2022-11-22T08:44:52.301Z,5.30
2022-11-22T08:47:18.871Z,5.20
2022-11-22T08:49:45.460Z,3.07
2022-11-22T08:52:12.055Z,23.90
2022-11-22T08:54:38.718Z,6.63
2022-11-22T08:57:05.477Z,5.07
2022-11-22T08:59:33.041Z,7.07
2022-11-22T09:02:00.147Z,4.23
2022-11-22T09:04:26.883Z,9.27
2022-11-22T09:09:40.111Z,8.93
2022-11-22T09:12:07.290Z,8.33
2022-11-22T09:14:33.918Z,6.17
2022-11-22T09:17:00.566Z,7.77
2022-11-22T09:19:27.121Z,6.67
2022-11-22T09:21:53.707Z,8.43
2022-11-22T09:24:20.318Z,7.27
2022-11-22T09:26:46.952Z,7.80
2022-11-22T09:29:14.289Z,12.80
2022-11-22T09:31:40.990Z,8.23
2022-11-22T09:34:07.967Z,12.43
2022-11-22T09:36:34.793Z,7.50
2022-11-22T09:39:01.411Z,6.83
2022-11-22T09:41:43.121Z,7.27
2022-11-22T09:44:37.361Z,7.23
2022-11-22T09:47:03.958Z,7.80
2022-11-22T09:49:44.690Z,7.23
2022-11-22T09:52:25.317Z,6.53
2022-11-22T09:54:59.543Z,5.70
2022-11-22T09:57:37.631Z,10.07
2022-11-22T10:00:20.322Z,5.83
2022-11-22T10:03:01.024Z,4.47
2022-11-22T10:05:39.019Z,7.57
2022-11-22T10:08:25.098Z,8.57
2022-11-22T10:10:55.909Z,8.50
2022-11-22T10:13:31.649Z,7.17
2022-11-22T10:16:03.356Z,8.00
2022-11-22T10:18:32.662Z,6.63
2022-11-22T10:20:59.354Z,5.00
2022-11-22T10:23:27.535Z,5.73
2022-11-22T10:26:04.952Z,4.57
2022-11-22T10:28:31.485Z,3.53
2022-11-22T10:30:58.023Z,6.93
2022-11-22T10:34:09.667Z,4.73
2022-11-22T10:37:01.983Z,4.50
2022-11-22T10:39:47.901Z,4.93
2022-11-22T10:42:41.823Z,7.63
2022-11-22T10:45:31.243Z,2.80
2022-11-22T10:48:21.142Z,5.57
2022-11-22T10:51:08.738Z,5.37
2022-11-22T10:53:48.906Z,4.60
2022-11-22T10:56:26.994Z,4.87
2022-11-22T10:59:10.604Z,6.50
2022-11-22T11:01:42.341Z,2.90
2022-11-22T11:04:14.024Z,4.47
2022-11-22T11:07:11.573Z,5.53
2022-11-22T11:12:53.093Z,4.00
2022-11-22T11:15:21.935Z,3.30
2022-11-22T11:17:55.247Z,4.43
2022-11-22T11:20:43.619Z,4.90
2022-11-22T11:23:15.089Z,3.77
2022-11-22T11:25:44.718Z,4.73
2022-11-22T11:28:23.747Z,5.57
2022-11-22T11:30:54.375Z,2.90
2022-11-22T11:33:24.359Z,3.83
2022-11-22T11:35:55.227Z,6.07
2022-11-22T11:38:44.725Z,6.23
2022-11-22T11:41:19.090Z,4.80
2022-11-22T11:43:46.523Z,4.07
2022-11-22T11:46:22.021Z,3.23
2022-11-22T11:48:51.156Z,3.73
2022-11-22T11:51:37.269Z,5.07
2022-11-22T11:54:09.952Z,4.63
2022-11-22T11:56:46.411Z,2.90
2022-11-22T11:59:38.668Z,2.63
2022-11-22T12:02:16.283Z,2.83
2022-11-22T12:04:59.461Z,4.47
2022-11-22T12:07:28.545Z,4.03
2022-11-22T12:09:56.238Z,4.93
2022-11-22T12:12:31.690Z,4.50
2022-11-22T12:15:21.215Z,4.70
2022-11-22T12:17:59.363Z,4.87
2022-11-22T12:20:37.945Z,3.20
2022-11-22T12:23:23.086Z,3.37
2022-11-22T12:25:52.283Z,3.27
2022-11-22T12:28:21.557Z,3.07
2022-11-22T12:30:54.162Z,4.63
2022-11-22T12:33:27.507Z,2.33
2022-11-22T12:35:55.396Z,3.10
2022-11-22T12:38:27.988Z,2.93
2022-11-22T12:40:59.253Z,3.07
2022-11-22T12:43:28.922Z,2.87
2022-11-22T12:46:01.814Z,3.70
2022-11-22T12:48:51.841Z,2.93
2022-11-22T12:51:28.264Z,2.13
2022-11-22T12:54:00.860Z,3.43
2022-11-22T12:56:50.197Z,8.00
2022-11-22T12:59:26.813Z,8.23
2022-11-22T13:02:22.405Z,3.00
2022-11-22T13:05:01.846Z,4.43
2022-11-22T13:07:36.585Z,5.20
2022-11-22T13:10:14.892Z,7.70
2022-11-22T13:12:43.019Z,3.37
2022-11-22T13:15:13.986Z,2.87
2022-11-22T13:17:40.652Z,4.60
2022-11-22T13:20:17.132Z,2.67
2022-11-22T13:23:08.814Z,3.63
2022-11-22T13:26:11.712Z,2.43
2022-11-22T13:28:43.502Z,3.70
2022-11-22T13:31:10.067Z,2.20
2022-11-22T13:33:39.768Z,4.53
2022-11-22T13:36:29.414Z,2.50
2022-11-22T13:39:02.108Z,2.10
2022-11-22T13:41:40.128Z,2.30
2022-11-22T13:44:22.053Z,2.67
2022-11-22T13:47:04.934Z,2.03
2022-11-22T13:49:39.165Z,2.90
2022-11-22T13:52:16.659Z,2.20
2022-11-22T13:54:58.268Z,1.50
2022-11-22T13:57:27.803Z,1.90
2022-11-22T14:00:18.701Z,2.23
2022-11-22T14:02:51.045Z,2.93
2022-11-22T14:05:26.818Z,2.77
2022-11-22T14:07:55.959Z,2.47
2022-11-22T14:10:37.732Z,3.17
2022-11-22T14:13:09.288Z,3.60
2022-11-22T14:15:48.246Z,2.40
2022-11-22T14:18:34.086Z,1.70
2022-11-22T14:21:01.429Z,2.37
2022-11-22T14:23:43.287Z,2.07
2022-11-22T14:26:20.367Z,1.77
2022-11-22T14:29:17.711Z,1.90
2022-11-22T14:31:55.314Z,4.10
2022-11-22T14:34:25.031Z,3.33
2022-11-22T14:37:10.068Z,2.10
2022-11-22T14:39:45.602Z,1.20
2022-11-22T14:42:41.101Z,4.43
2022-11-22T14:45:10.499Z,2.40
2022-11-22T14:47:40.872Z,1.83
2022-11-22T14:50:18.705Z,2.07
2022-11-22T14:52:48.023Z,1.87
2022-11-22T14:55:18.809Z,0.97
2022-11-22T14:57:51.770Z,2.17
2022-11-22T15:00:21.563Z,1.30
2022-11-22T15:02:54.246Z,2.47
2022-11-22T15:09:12.132Z,1.00
2022-11-22T15:09:21.293Z,1.43
2022-11-22T15:12:11.615Z,1.63
2022-11-22T15:14:59.419Z,3.03
2022-11-22T15:57:37.291Z,1.80
2022-11-22T16:00:10.762Z,1.90
2022-11-22T16:02:47.296Z,2.17
2022-11-22T16:06:05.400Z,2.87
2022-11-22T16:08:01.886Z,1.30
2022-11-22T16:10:39.163Z,3.73
2022-11-22T16:13:11.621Z,2.13
2022-11-22T16:15:38.643Z,1.67
2022-11-22T16:18:22.368Z,3.30
2022-11-22T16:21:03.272Z,3.03
2022-11-22T16:23:37.741Z,2.43
2022-11-22T16:26:22.247Z,2.80
2022-11-22T16:28:51.579Z,3.00
2022-11-22T16:31:24.295Z,2.30
2022-11-22T16:33:54.012Z,2.70
2022-11-22T16:36:22.832Z,2.00
2022-11-22T16:38:50.102Z,2.40
2022-11-22T16:41:27.026Z,2.80
2022-11-22T16:44:00.217Z,3.57
2022-11-22T16:46:26.971Z,3.40
2022-11-22T16:48:54.988Z,2.90
2022-11-22T16:51:30.076Z,1.80
2022-11-22T16:54:00.121Z,3.40
2022-11-22T16:56:29.224Z,2.20
2022-11-22T16:58:57.437Z,1.57
2022-11-22T17:01:27.228Z,2.03
2022-11-22T17:03:56.479Z,1.47
2022-11-22T17:06:25.352Z,1.20
2022-11-22T17:08:54.576Z,1.10
2022-11-22T17:11:23.861Z,1.77
2022-11-22T17:13:50.657Z,1.40
2022-11-22T17:16:20.609Z,1.50
2022-11-22T17:18:48.414Z,1.37
2022-11-22T17:21:25.571Z,1.60
2022-11-22T17:23:55.085Z,2.00
2022-11-22T17:26:21.752Z,1.53
2022-11-22T17:28:48.508Z,2.47
2022-11-22T17:31:17.363Z,3.13
2022-11-22T17:33:44.057Z,3.10
2022-11-22T17:36:22.088Z,3.27
2022-11-22T17:38:48.725Z,3.67
2022-11-22T17:41:15.392Z,4.23
2022-11-22T17:43:42.002Z,4.03
2022-11-22T17:46:08.572Z,4.00
2022-11-22T17:48:35.178Z,4.50
2022-11-22T17:51:10.143Z,3.90
2022-11-22T17:53:37.049Z,4.00
2022-11-22T17:56:11.753Z,4.03
2022-11-22T17:58:39.831Z,3.63
2022-11-22T18:01:12.239Z,4.13
2022-11-22T18:03:40.122Z,3.87
2022-11-22T18:06:09.670Z,4.23
2022-11-22T18:08:36.365Z,3.07
2022-11-22T18:11:04.184Z,4.00
2022-11-22T18:13:33.390Z,6.47
2022-11-22T18:16:03.664Z,7.27
2022-11-22T18:21:18.874Z,4.10
2022-11-22T18:23:45.573Z,9.43
2022-11-22T18:31:54.297Z,7.13
2022-11-22T18:34:24.589Z,6.97
2022-11-22T18:37:07.241Z,6.97
2022-11-22T18:39:39.049Z,5.90
2022-11-22T18:42:08.722Z,7.03
2022-11-22T18:44:35.365Z,5.53
2022-11-22T18:47:01.964Z,5.37
2022-11-22T18:49:29.082Z,4.27
2022-11-22T18:51:56.060Z,6.93
2022-11-22T18:54:23.178Z,3.80
2022-11-22T18:56:51.489Z,6.20
2022-11-22T18:59:18.623Z,6.00
2022-11-22T19:01:45.294Z,8.97
2022-11-22T19:04:14.094Z,5.90
2022-11-22T19:06:41.892Z,5.47
2022-11-22T19:09:09.375Z,6.33
2022-11-22T19:11:36.109Z,8.87
2022-11-22T19:14:02.800Z,7.20
2022-11-22T19:16:30.355Z,7.30
2022-11-22T19:18:59.226Z,9.00
2022-11-22T19:21:27.966Z,8.37
2022-11-22T19:23:55.642Z,9.97
2022-11-22T19:26:24.786Z,8.73
2022-11-22T19:28:55.653Z,7.63
2022-11-22T19:31:25.178Z,7.13
2022-11-22T19:33:51.797Z,7.03
2022-11-22T19:36:21.427Z,9.17
2022-11-22T19:38:48.673Z,5.83
2022-11-22T19:41:18.091Z,6.27
2022-11-22T19:43:45.859Z,7.10
2022-11-22T19:46:13.215Z,7.97
2022-11-22T19:48:46.660Z,5.30
2022-11-22T19:51:15.452Z,7.93
2022-11-22T19:53:42.829Z,7.43
2022-11-22T19:56:15.572Z,6.60
2022-11-22T19:58:43.779Z,10.50
2022-11-22T20:01:13.014Z,10.40
2022-11-22T20:03:42.304Z,6.83
2022-11-22T20:06:11.637Z,9.33
2022-11-22T20:08:39.225Z,12.43
2022-11-22T20:11:11.345Z,8.07
2022-11-22T20:13:40.425Z,10.57
2022-11-22T20:16:17.501Z,9.97
2022-11-22T20:18:44.086Z,8.10
2022-11-22T20:21:12.191Z,10.33
2022-11-22T20:23:39.606Z,9.83
2022-11-22T20:26:11.553Z,8.03
2022-11-22T20:28:39.623Z,8.27
2022-11-22T20:31:10.993Z,12.27
2022-11-22T20:33:40.746Z,8.90
2022-11-22T20:36:10.052Z,8.97
2022-11-22T20:38:38.659Z,8.10
2022-11-22T20:41:06.392Z,8.30
2022-11-22T20:43:34.290Z,6.67
2022-11-22T20:46:02.290Z,11.07
2022-11-22T20:48:29.406Z,8.73
2022-11-22T20:50:56.119Z,8.67
2022-11-22T20:53:22.722Z,14.73
2022-11-22T20:55:49.318Z,9.07
2022-11-22T20:58:16.084Z,8.03
2022-11-22T21:00:43.395Z,7.77
2022-11-22T21:03:10.703Z,10.90
2022-11-22T21:05:37.542Z,9.10
2022-11-22T21:08:05.415Z,9.00
2022-11-22T21:10:32.560Z,7.13
2022-11-22T21:12:59.436Z,8.63
2022-11-22T21:15:26.038Z,9.73
2022-11-22T21:18:23.061Z,9.90
2022-11-22T21:20:41.919Z,6.97
2022-11-22T21:23:08.497Z,7.73
2022-11-22T21:25:35.439Z,11.20
2022-11-22T21:28:02.505Z,9.63
2022-11-22T21:30:29.123Z,8.27
2022-11-22T21:32:56.042Z,6.73
2022-11-22T21:35:22.733Z,7.47
2022-11-22T21:37:49.298Z,8.37
2022-11-22T21:40:16.229Z,9.13
2022-11-22T21:42:44.624Z,7.63
2022-11-22T21:45:11.216Z,9.07
2022-11-22T21:47:37.773Z,10.13
2022-11-22T21:50:08.640Z,6.60
2022-11-22T21:52:38.160Z,10.97
2022-11-22T21:55:05.175Z,7.23
2022-11-22T21:57:31.743Z,9.60
2022-11-22T21:59:58.317Z,10.80
2022-11-22T22:02:24.924Z,6.13
2022-11-22T22:04:51.498Z,7.33
2022-11-22T22:07:44.651Z,10.20
2022-11-22T22:10:05.423Z,7.20
2022-11-22T22:12:32.205Z,8.00
2022-11-22T22:14:58.805Z,7.43
2022-11-22T22:17:25.463Z,7.17
2022-11-22T22:19:52.442Z,6.90
2022-11-22T22:22:19.042Z,7.50
2022-11-22T22:24:45.897Z,6.27
2022-11-22T22:27:12.574Z,6.70
2022-11-22T22:29:39.154Z,4.90
2022-11-22T22:32:10.340Z,7.10
2022-11-22T22:34:37.343Z,6.17
2022-11-22T22:37:03.900Z,6.93
2022-11-22T22:39:30.939Z,7.63
2022-11-22T22:41:57.725Z,8.33
2022-11-22T22:44:24.379Z,6.77
2022-11-22T22:46:50.919Z,7.50
2022-11-22T22:49:17.613Z,7.67
2022-11-22T22:51:44.253Z,9.03
2022-11-22T22:54:10.944Z,6.07
2022-11-22T22:56:37.495Z,8.20
2022-11-22T22:59:05.234Z,6.47
2022-11-22T23:01:31.971Z,8.07
2022-11-22T23:04:00.734Z,6.90
2022-11-22T23:06:33.350Z,5.90
2022-11-22T23:09:00.103Z,7.93
2022-11-22T23:11:47.836Z,8.23
2022-11-22T23:14:17.224Z,5.10
2022-11-22T23:16:43.803Z,6.87
2022-11-22T23:19:10.947Z,5.50
2022-11-22T23:21:37.633Z,5.23
2022-11-22T23:24:04.929Z,6.17
2022-11-22T23:26:32.039Z,7.47
2022-11-22T23:28:59.539Z,7.10
2022-11-22T23:31:27.340Z,6.30
2022-11-22T23:33:54.794Z,8.23
2022-11-22T23:36:23.534Z,6.67
2022-11-22T23:38:50.552Z,8.50
2022-11-22T23:41:22.238Z,10.77
2022-11-22T23:43:54.163Z,7.07
2022-11-22T23:46:22.433Z,10.03
2022-11-22T23:48:53.937Z,11.03
2022-11-22T23:51:21.748Z,6.93
2022-11-22T23:53:48.566Z,8.07
2022-11-22T23:56:21.531Z,6.60
2022-11-22T23:58:49.036Z,8.43
